EPGDEPKK

Guest
Details From EPGD - LECH WALESA
To EPKK - BALICE
Flight Number -
Tags decoded
Created
Modified
Stats Distance 267 nm / 495 km
Max Altitude 0 ft / 0 m
Waypoints 3
Social Downloads 2
Likes 0
Share

Download

Looking for another format? Having issues loading an existing format? Contact us
Advertisement - Login to hide

Notes

Requested: EPGD IRLUN N133 NEGUV M66 KUKAM EPKK Unmatched points: IRLUN N133 NEGUV

Route

EPGD KUKAM EPKK

ID Type Via Altitude (ft/m) Position (lat/lon) Dist (leg/tot) Name
O EPGD APT - 0 / 0 54.37617 / 18.47188 - / 0 nm LECH WALESA
KUKAM FIX - 0 / 0 50.80611 / 20.06056 222 / 222 nm
O EPKK APT - 0 / 0 50.07782 / 19.78550 44 / 267 nm BALICE

Altitude Profile

Advertisement - Login to hide

Weather


0- 5 10 15 20 25 30 35+ Temperature / °C

Clouds and Precipitation
Forecast for 2021-03-22 12:00 UTC. Updated 2 months ago

Ground ~20,000 ft ~40,000 ft Winds

EPGD

Details ICAO EPGD (GDN)
Name Gdansk Lech Walesa
Region Poland
Timezone Europe/Warsaw (UTC+2.0)
Stats Elevation 488 ft / 149 m (AMSL)
Location 54.376200° 18.471900°
Runways 1
Magnetic Variation 5.917° E

METAR

EPGD 080730Z 25012KT 9999 SCT012 BKN018 07/03 Q1013

Decode

TAF

TAF TAF EPGD 080530Z 0806/0906 27010KT 9999 BKN030 TEMPO 0806/0816 29016G27KT SHRA SCT009 BKN018CB PROB40 0806/0808 BKN008 BECMG 0816/0819 VRB02KT BECMG 0903/0906 18010KT

Decode

Departure Runways

ID Width Length Bearing (true/mag) Surface Threshold Overrun Markings Lighting
11 148 ft / 45 m 9,162 ft / 2,793 m 112.97° / 107.06° ASPHALT 0 ft / 0 m 0 ft / 0 m PREC-APP CENTERLINE EDGE THRESHOLD ALSF-II REIL-OMNI
29 148 ft / 45 m 9,162 ft / 2,793 m 293.01° / 287.09° ASPHALT 0 ft / 0 m 0 ft / 0 m PREC-APP CENTERLINE EDGE THRESHOLD ALSF-II REIL-OMNI

EPKK

Details ICAO EPKK (KRK)
Name Krakow-John Paul II
Region Poland
Timezone Europe/Warsaw (UTC+2.0)
Stats Elevation 791 ft / 241 m (AMSL)
Location 50.077800° 19.785500°
Runways 1
Magnetic Variation 5.618° E

METAR

EPKK 080730Z 25012KT 9999 SCT027 08/01 Q1020

Decode

TAF

TAF EPKK 080530Z 0806/0906 26012KT 9999 SCT040 TEMPO 0809/0812 27015G25KT SCT035TCU TEMPO 0812/0816 SCT040TCU BECMG 0816/0818 VRB02KT

Decode

Destination Runways

ID Width Length Bearing (true/mag) Surface Threshold Overrun Markings Lighting
07 197 ft / 60 m 8,352 ft / 2,546 m 77.76° / 72.14° CONCRETE 0 ft / 0 m 0 ft / 0 m PREC-APP CENTERLINE EDGE THRESHOLD ALSF-I REIL-OMNI
25 197 ft / 60 m 8,352 ft / 2,546 m 257.78° / 252.16° CONCRETE 778 ft / 237 m 0 ft / 0 m PREC-APP CENTERLINE EDGE THRESHOLD ALSF-II TDZ REIL-OMNI

Approach Navaids

Runway Type Ident Frequency Range Bearing (true/mag) Slope Elevation
25 LOC-ILS KRW 110.30 MHz 18 nm / 33 km 257.77° / 252.15 ° - 791 ft / 241 m (AMSL)
25 OM OM - - 257.76° / 252.14 ° - 791 ft / 241 m (AMSL)
25 MM MM - - 257.76° / 252.14 ° - 791 ft / 241 m (AMSL)
25 DME KRW 110.30 MHz 18 nm / 33 km - - 827 ft / 252 m (AMSL)
25 GS KRW 110.30 MHz 10 nm / 19 km 257.77° / 252.15 ° 3.00° 791 ft / 241 m (AMSL)

Popular Alternatives